CheckWX is a tool to help pilots better visualize weather data.  It is not intended as a substitute for an official pre-flight weather briefing.

20:38:49 UTC

RPLL METAR
Ninoy Aquino International Airport
Manila, Philippines
Current

39 mins ago

RPLL 162000Z 23010KT 8000 -RA SCT020 OVC080 26/24 Q1001 NOSIG RMK A2956
Observed
Jul-16 @ 20:00 UTC
Wind
  • 230° at 10 KTS
Visibility
8,000 meters
Flight Rules
MVFR
Conditions
Light Rain
Cloud Levels
  • Scattered at 2,000' AGL
  • Overcast at 8,000' AGL
Temperature
26°C / 79°F
Dewpoint
24°C / 75°F
Humidity
89%
Altimeter
29.56" Hg
Pressure
1000.92 hPa
Previous

2 hours ago

RPLL 161900Z 23010KT 8000 -RA SCT020 OVC080 24/24 Q1001 NOSIG RMK A2956
Observed
Jul-16 @ 19:00 UTC
Wind
  • 230° at 10 KTS
Visibility
8,000 meters
Flight Rules
MVFR
Conditions
Light Rain
Cloud Levels
  • Scattered at 2,000' AGL
  • Overcast at 8,000' AGL
Temperature
24°C / 75°F
Dewpoint
24°C / 75°F
Humidity
100%
Altimeter
29.56" Hg
Pressure
1000.92 hPa
Previous

3 hours ago

RPLL 161800Z 24010KT 8000 -RA ST020 OVC080 25/24 Q1001 NOSIG RMK A2956
Observed
Jul-16 @ 18:00 UTC
Wind
  • 240° at 10 KTS
Visibility
8,000 meters
Flight Rules
MVFR
Conditions
Light Rain
Cloud Levels
  • Overcast at 8,000' AGL
Temperature
25°C / 77°F
Dewpoint
24°C / 75°F
Humidity
94%
Altimeter
29.56" Hg
Pressure
1000.92 hPa